Time;durP1;ratioP1;P1;durP2;ratioP2;P2;SDS_P1;SDS_P2;PMS_P1;PMS_P2;Temp;Humidity;BMP_temperature;BMP_pressure;BME280_temperature;BME280_humidity;BME280_pressure;Samples;Min_cycle;Max_cycle;Signal;HPM_P1;HPM_P2
2023/07/19 00:00:39;;;;;;;1.75;1.40;;;;;;;14.31;98.48;97187.25;4956145;28;20056;-71
2023/07/19 00:03:05;;;;;;;2.05;1.58;;;;;;;14.28;98.84;97193.81;4956014;28;20034;-70
2023/07/19 00:05:30;;;;;;;3.03;1.83;;;;;;;14.33;99.25;97179.84;4955949;28;20057;-64
2023/07/19 00:07:56;;;;;;;2.63;1.50;;;;;;;14.36;99.26;97174.91;4955815;28;20034;-64
2023/07/19 00:10:22;;;;;;;1.17;1.08;;;;;;;14.35;99.24;97169.75;4952038;28;20497;-65
2023/07/19 00:12:47;;;;;;;1.45;1.35;;;;;;;14.40;98.92;97175.41;4955682;28;20049;-64
2023/07/19 00:15:12;;;;;;;1.67;1.50;;;;;;;14.38;98.54;97158.66;4970129;28;20398;-64
2023/07/19 00:17:38;;;;;;;1.88;1.38;;;;;;;14.44;98.54;97156.06;4955505;28;20046;-65
2023/07/19 00:20:04;;;;;;;2.47;1.92;;;;;;;14.51;98.81;97146.22;4955552;28;20065;-64
2023/07/19 00:22:32;;;;;;;4.90;1.88;;;;;;;14.57;98.67;97155.31;4955516;28;20042;-65
2023/07/19 00:24:58;;;;;;;1.58;1.48;;;;;;;14.63;98.94;97149.19;4955172;28;20394;-65
2023/07/19 00:27:24;;;;;;;1.45;1.35;;;;;;;14.63;98.66;97165.28;4955698;28;20448;-65
2023/07/19 00:29:49;;;;;;;3.63;1.75;;;;;;;14.68;98.78;97149.41;4970556;28;20053;-67
2023/07/19 00:32:15;;;;;;;2.80;1.80;;;;;;;14.74;98.05;97137.09;4954126;28;20043;-66
2023/07/19 00:34:40;;;;;;;1.30;1.13;;;;;;;14.74;98.03;97145.97;4955394;28;20053;-70
2023/07/19 00:37:05;;;;;;;2.38;1.92;;;;;;;14.74;97.78;97127.19;4969677;28;20038;-68
2023/07/19 00:39:33;;;;;;;1.80;1.67;;;;;;;14.80;97.58;97161.25;4943640;28;20505;-65
2023/07/19 00:42:01;;;;;;;1.75;1.63;;;;;;;14.83;97.47;97133.22;4943839;28;20046;-67
2023/07/19 00:44:27;;;;;;;2.40;1.85;;;;;;;14.86;97.40;97133.66;4936819;28;20054;-65
2023/07/19 00:46:52;;;;;;;2.50;1.67;;;;;;;14.84;97.11;97151.78;4970746;28;20046;-64
2023/07/19 00:49:18;;;;;;;1.90;1.50;;;;;;;14.89;97.15;97127.06;4954243;28;20057;-69
2023/07/19 00:51:43;;;;;;;2.15;1.88;;;;;;;14.89;96.92;97132.44;4953889;28;20057;-65
2023/07/19 00:54:09;;;;;;;1.85;1.45;;;;;;;14.88;96.99;97123.56;4955261;28;20061;-65
2023/07/19 00:56:35;;;;;;;3.58;1.83;;;;;;;14.85;96.58;97125.81;4954477;28;20058;-65
2023/07/19 00:59:03;;;;;;;4.20;1.75;;;;;;;14.89;96.43;97116.34;4954578;28;20515;-64
2023/07/19 01:01:28;;;;;;;1.73;1.60;;;;;;;14.92;96.81;97123.97;4953117;28;20456;-65
2023/07/19 01:03:53;;;;;;;6.70;2.03;;;;;;;14.95;96.78;97114.72;4952850;28;20042;-64
2023/07/19 01:06:19;;;;;;;3.83;2.08;;;;;;;14.95;97.09;97109.34;4936638;28;20046;-63
2023/07/19 01:08:47;;;;;;;3.97;2.00;;;;;;;14.92;97.21;97096.31;4919757;28;20418;-65
2023/07/19 01:11:13;;;;;;;4.45;2.30;;;;;;;14.92;97.61;97115.94;4938895;28;20417;-65
2023/07/19 01:13:38;;;;;;;2.85;2.17;;;;;;;14.91;97.78;97125.00;4937346;28;20418;-64
2023/07/19 01:16:03;;;;;;;1.48;1.10;;;;;;;14.89;97.73;97106.44;4938410;28;20054;-63
2023/07/19 01:18:29;;;;;;;2.45;1.67;;;;;;;14.92;97.99;97110.56;4938846;28;20494;-64
2023/07/19 01:20:54;;;;;;;2.05;1.42;;;;;;;14.94;98.30;97129.16;4953791;28;20055;-64
2023/07/19 01:23:19;;;;;;;1.58;1.23;;;;;;;14.97;98.38;97108.13;4939008;28;20039;-64
2023/07/19 01:25:47;;;;;;;5.00;1.58;;;;;;;14.94;98.87;97129.97;4954082;28;20046;-64
2023/07/19 01:28:13;;;;;;;2.67;1.73;;;;;;;14.96;98.83;97116.38;4939076;28;20030;-64
2023/07/19 01:30:40;;;;;;;1.80;1.70;;;;;;;14.98;99.03;97108.94;4939301;28;20051;-64
2023/07/19 01:33:05;;;;;;;1.70;1.35;;;;;;;14.99;99.46;97126.72;4943043;28;20038;-67
2023/07/19 01:35:31;;;;;;;2.22;1.73;;;;;;;14.95;99.63;97134.31;4941128;28;20050;-71
2023/07/19 01:37:57;;;;;;;2.00;1.90;;;;;;;14.91;99.67;97141.09;4956683;28;20061;-70
2023/07/19 01:40:22;;;;;;;2.78;1.85;;;;;;;14.92;99.60;97141.91;4951955;28;20520;-65
2023/07/19 01:42:50;;;;;;;2.42;2.15;;;;;;;14.89;99.53;97137.81;4962643;28;20038;-65
2023/07/19 01:45:16;;;;;;;3.08;2.30;;;;;;;14.88;99.70;97144.19;4954578;28;20070;-64
2023/07/19 01:47:41;;;;;;;2.08;1.98;;;;;;;14.86;100.00;97138.19;4953092;28;20413;-66
2023/07/19 01:50:06;;;;;;;2.60;1.98;;;;;;;14.81;99.86;97146.00;4948338;28;20042;-64
2023/07/19 01:52:32;;;;;;;2.20;2.00;;;;;;;14.79;99.86;97148.03;4942785;28;20050;-64
2023/07/19 01:54:59;;;;;;;2.13;1.92;;;;;;;14.74;100.00;97151.31;4943415;28;20042;-64
2023/07/19 01:57:24;;;;;;;3.83;2.40;;;;;;;14.68;99.73;97157.44;4956391;28;20078;-65
2023/07/19 01:59:49;;;;;;;1.95;1.80;;;;;;;14.68;99.89;97149.41;4964753;28;20058;-64
2023/07/19 02:02:15;;;;;;;3.35;1.85;;;;;;;14.68;99.87;97162.81;4948974;28;20042;-64
2023/07/19 02:04:40;;;;;;;1.70;1.60;;;;;;;14.65;100.00;97162.41;4956307;28;20050;-68
2023/07/19 02:07:05;;;;;;;2.05;1.83;;;;;;;14.62;100.00;97168.97;4955324;28;20049;-65
2023/07/19 02:09:31;;;;;;;3.55;2.42;;;;;;;14.62;100.00;97163.63;4958875;28;20053;-70
2023/07/19 02:11:58;;;;;;;3.58;1.90;;;;;;;14.62;100.00;97173.50;4957504;28;20049;-71
2023/07/19 02:14:24;;;;;;;3.95;2.17;;;;;;;14.63;100.00;97167.94;4956164;28;20053;-70
2023/07/19 02:16:49;;;;;;;2.38;2.17;;;;;;;14.57;100.00;97168.72;4972328;28;20042;-71
2023/07/19 02:19:15;;;;;;;3.20;2.40;;;;;;;14.59;100.00;97173.88;4971963;28;20054;-67
2023/07/19 02:21:40;;;;;;;5.20;2.03;;;;;;;14.55;100.00;97178.00;4971569;28;20450;-72
2023/07/19 02:24:06;;;;;;;4.43;2.17;;;;;;;14.51;100.00;97173.03;4957124;28;20051;-71
2023/07/19 02:26:31;;;;;;;2.25;2.00;;;;;;;14.47;99.94;97181.63;4971882;28;20038;-70
2023/07/19 02:28:57;;;;;;;3.83;1.67;;;;;;;14.46;100.00;97190.69;4972116;28;20053;-72
2023/07/19 02:31:22;;;;;;;2.55;1.40;;;;;;;14.41;100.00;97185.09;4971729;28;20046;-72
2023/07/19 02:33:47;;;;;;;1.65;1.55;;;;;;;14.40;100.00;97218.28;4956309;28;20508;-71
2023/07/19 02:36:12;;;;;;;2.38;2.15;;;;;;;14.41;100.00;97193.16;4971028;28;20042;-70
2023/07/19 02:38:39;;;;;;;2.75;2.17;;;;;;;14.43;100.00;97215.22;4952845;28;20045;-71
2023/07/19 02:41:07;;;;;;;2.45;2.13;;;;;;;14.44;100.00;97219.56;4939281;28;20047;-71
2023/07/19 02:43:34;;;;;;;2.85;2.55;;;;;;;14.44;100.00;97222.25;4951320;28;20066;-70
2023/07/19 02:45:59;;;;;;;6.05;2.67;;;;;;;14.44;100.00;97222.25;4956123;28;20404;-71
2023/07/19 02:48:25;;;;;;;2.33;2.13;;;;;;;14.44;100.00;97217.72;4945345;28;20035;-71
2023/07/19 02:50:50;;;;;;;5.95;2.58;;;;;;;14.45;100.00;97237.28;4939929;28;20043;-73
2023/07/19 02:53:16;;;;;;;2.92;2.30;;;;;;;14.44;100.00;97235.66;4942718;28;20064;-71
2023/07/19 02:55:45;;;;;;;5.18;2.42;;;;;;;14.42;100.00;97226.97;4944714;28;20046;-71
2023/07/19 02:58:11;;;;;;;3.00;2.22;;;;;;;14.41;100.00;97241.41;4955693;28;20058;-70
2023/07/19 03:00:43;;;;;;;3.30;2.35;;;;;;;14.40;100.00;97234.38;4955553;28;20493;-68
2023/07/19 03:03:10;;;;;;;3.78;2.10;;;;;;;14.36;100.00;97239.25;4970956;28;20493;-70
2023/07/19 03:05:39;;;;;;;3.85;2.35;;;;;;;14.35;100.00;97242.94;4954612;28;20065;-68
2023/07/19 03:08:06;;;;;;;2.97;2.25;;;;;;;14.31;100.00;97251.59;4953889;28;20050;-68
2023/07/19 03:10:31;;;;;;;4.65;2.58;;;;;;;14.30;100.00;97250.75;4955193;28;20038;-69
2023/07/19 03:12:56;;;;;;;2.17;1.98;;;;;;;14.28;100.00;97262.69;4955242;28;20050;-68
2023/07/19 03:15:22;;;;;;;2.38;2.17;;;;;;;14.26;100.00;97276.25;4952888;28;20830;-69
2023/07/19 03:17:47;;;;;;;2.25;2.05;;;;;;;14.23;100.00;97278.47;4947554;28;20551;-69
2023/07/19 03:20:12;;;;;;;2.35;2.15;;;;;;;14.23;100.00;97276.63;4951801;28;20043;-72
2023/07/19 03:22:37;;;;;;;3.38;1.98;;;;;;;14.25;100.00;97301.41;4952069;28;20501;-70
2023/07/19 03:25:05;;;;;;;2.13;1.92;;;;;;;14.22;100.00;97328.56;4953678;28;20493;-70
2023/07/19 03:27:31;;;;;;;3.45;2.30;;;;;;;14.24;100.00;97298.91;4951486;28;20051;-70
2023/07/19 03:29:56;;;;;;;3.38;1.90;;;;;;;14.25;100.00;97312.13;4964640;28;20038;-70
2023/07/19 03:32:21;;;;;;;2.17;1.95;;;;;;;14.28;100.00;97316.28;4955535;28;20070;-72
2023/07/19 03:34:46;;;;;;;4.25;2.13;;;;;;;14.25;100.00;97338.09;4971341;28;20050;-69
2023/07/19 03:37:13;;;;;;;4.28;2.58;;;;;;;14.20;100.00;97333.31;4970893;28;20046;-71
2023/07/19 03:39:40;;;;;;;3.90;2.60;;;;;;;14.19;100.00;97342.38;4955837;28;20042;-69
2023/07/19 03:42:07;;;;;;;3.05;2.10;;;;;;;14.20;100.00;97357.44;4956073;28;20567;-70
2023/07/19 03:44:32;;;;;;;4.88;2.50;;;;;;;14.22;100.00;97354.56;4971015;28;20046;-70
2023/07/19 03:46:57;;;;;;;3.45;2.88;;;;;;;14.24;100.00;97358.69;4971382;28;20042;-71
2023/07/19 03:49:22;;;;;;;3.70;2.33;;;;;;;14.23;100.00;97372.28;4971073;28;20038;-70
2023/07/19 03:51:48;;;;;;;5.00;2.95;;;;;;;14.22;100.00;97370.66;4955560;28;20053;-72
2023/07/19 03:54:17;;;;;;;3.35;2.38;;;;;;;14.23;100.00;97373.09;4951446;28;20050;-72
2023/07/19 03:56:43;;;;;;;2.55;2.35;;;;;;;14.24;100.00;97380.13;4951889;28;20055;-68
2023/07/19 03:59:09;;;;;;;3.13;2.50;;;;;;;14.25;100.00;97375.59;4952362;28;20039;-66
2023/07/19 04:01:34;;;;;;;3.25;2.92;;;;;;;14.21;100.00;97395.78;4968959;28;20049;-71
2023/07/19 04:03:59;;;;;;;6.10;3.92;;;;;;;14.10;100.00;97376.47;4946810;28;20121;-67
2023/07/19 04:06:24;;;;;;;8.20;4.15;;;;;;;14.04;100.00;97389.78;4938494;28;20039;-67
2023/07/19 04:08:49;;;;;;;7.07;4.20;;;;;;;13.94;100.00;97379.34;4939399;28;20062;-67
2023/07/19 04:11:16;;;;;;;6.00;4.43;;;;;;;13.98;100.00;97390.53;4951606;28;20039;-67
2023/07/19 04:13:42;;;;;;;6.95;4.70;;;;;;;13.93;100.00;97388.41;4938064;28;20067;-68
2023/07/19 04:16:07;;;;;;;5.80;4.43;;;;;;;13.92;100.00;97399.28;4939790;28;20046;-68
2023/07/19 04:18:33;;;;;;;5.30;4.40;;;;;;;13.98;100.00;97391.38;4938119;28;20054;-68
2023/07/19 04:20:58;;;;;;;5.85;4.50;;;;;;;14.04;100.00;97395.13;4937202;28;20413;-68
2023/07/19 04:23:26;;;;;;;6.47;5.22;;;;;;;14.01;100.00;97401.69;4937656;28;20051;-68
2023/07/19 04:25:52;;;;;;;8.27;5.72;;;;;;;14.04;100.00;97392.47;4934633;28;20050;-67
2023/07/19 04:28:17;;;;;;;6.22;5.32;;;;;;;14.04;100.00;97421.94;4951233;28;20043;-68
2023/07/19 04:30:44;;;;;;;7.43;5.05;;;;;;;13.99;100.00;97411.78;4951415;28;20746;-68
2023/07/19 04:33:10;;;;;;;10.02;4.80;;;;;;;14.01;100.00;97424.97;4951190;28;20417;-68
2023/07/19 04:35:35;;;;;;;10.30;4.85;;;;;;;14.01;100.00;97431.16;4935203;28;20058;-71
2023/07/19 04:38:00;;;;;;;7.50;4.93;;;;;;;14.02;100.00;97430.16;4935063;28;20042;-70
2023/07/19 04:40:26;;;;;;;5.43;4.28;;;;;;;14.01;100.00;97439.19;4935411;28;20510;-70
2023/07/19 04:42:51;;;;;;;8.38;4.90;;;;;;;14.04;100.00;97433.47;4935508;28;20744;-70
2023/07/19 04:45:16;;;;;;;5.82;4.63;;;;;;;14.08;100.00;97440.13;4938787;28;20053;-71
2023/07/19 04:47:42;;;;;;;5.15;4.13;;;;;;;14.10;100.00;97451.50;4954782;28;20401;-70
2023/07/19 04:50:09;;;;;;;6.68;4.53;;;;;;;14.11;100.00;97455.81;4938572;28;20046;-71
2023/07/19 04:52:36;;;;;;;4.90;3.92;;;;;;;14.10;100.00;97458.72;4954849;28;20051;-70
2023/07/19 04:55:03;;;;;;;5.00;4.22;;;;;;;14.11;100.00;97465.69;4929677;28;20076;-69
2023/07/19 04:57:30;;;;;;;5.75;3.88;;;;;;;14.13;100.00;97458.31;4974003;28;20058;-72
2023/07/19 04:59:55;;;;;;;4.25;3.65;;;;;;;14.10;100.00;97469.44;4958904;28;20050;-71
2023/07/19 05:02:21;;;;;;;4.72;4.00;;;;;;;14.07;100.00;97457.22;4941739;28;20417;-72
2023/07/19 05:04:46;;;;;;;4.65;4.05;;;;;;;14.04;100.00;97460.25;4957810;28;20504;-71
2023/07/19 05:07:11;;;;;;;5.25;3.97;;;;;;;14.06;100.00;97458.25;4958871;28;20046;-73
2023/07/19 05:09:36;;;;;;;5.15;3.72;;;;;;;14.06;100.00;97457.41;4973895;28;20046;-72
2023/07/19 05:12:02;;;;;;;4.22;3.45;;;;;;;14.06;100.00;97490.38;4974184;28;20038;-70
2023/07/19 05:14:28;;;;;;;6.60;4.30;;;;;;;14.11;100.00;97461.19;4973832;28;20046;-70
2023/07/19 05:16:53;;;;;;;6.00;3.55;;;;;;;14.07;100.00;97470.63;4973893;28;20050;-69
2023/07/19 05:19:19;;;;;;;7.65;3.53;;;;;;;14.06;100.00;97482.34;4973656;28;20049;-69
2023/07/19 05:21:44;;;;;;;4.07;3.33;;;;;;;14.02;100.00;97499.81;4973991;28;20061;-70
2023/07/19 05:24:11;;;;;;;4.68;3.78;;;;;;;14.01;100.00;97508.84;4958780;28;20838;-69
2023/07/19 05:26:37;;;;;;;4.00;3.35;;;;;;;14.05;100.00;97498.59;4973845;28;20061;-69
2023/07/19 05:29:03;;;;;;;5.70;3.75;;;;;;;14.01;100.00;97511.53;4957037;28;20054;-69
2023/07/19 05:31:28;;;;;;;6.30;4.43;;;;;;;13.99;100.00;97516.25;4958378;28;20053;-70
2023/07/19 05:33:54;;;;;;;5.80;4.05;;;;;;;14.01;100.00;97514.22;4958300;28;20053;-71
2023/07/19 05:36:19;;;;;;;3.72;3.30;;;;;;;14.07;100.00;97518.03;4957437;28;20046;-70
2023/07/19 05:38:44;;;;;;;4.47;3.58;;;;;;;14.07;100.00;97524.22;4958115;28;20046;-69
2023/07/19 05:41:09;;;;;;;7.88;4.10;;;;;;;14.04;100.00;97524.56;4958428;28;20046;-69
2023/07/19 05:43:35;;;;;;;4.75;3.58;;;;;;;13.95;100.00;97540.91;4968837;28;20500;-69
2023/07/19 05:46:04;;;;;;;5.95;3.45;;;;;;;14.00;100.00;97565.28;4969773;28;20045;-67
2023/07/19 05:48:30;;;;;;;6.95;4.18;;;;;;;14.02;100.00;97548.03;4963840;28;20041;-68
2023/07/19 05:50:55;;;;;;;4.88;3.40;;;;;;;14.07;100.00;97556.34;4959272;28;20110;-68
2023/07/19 05:53:20;;;;;;;4.55;3.63;;;;;;;14.11;100.00;97572.88;4959228;28;20489;-67
2023/07/19 05:55:45;;;;;;;4.05;3.42;;;;;;;14.15;100.00;97568.84;4958961;28;20073;-67
2023/07/19 05:58:11;;;;;;;4.70;3.40;;;;;;;14.13;100.00;97555.63;4958029;28;20051;-67
2023/07/19 06:00:36;;;;;;;6.32;3.70;;;;;;;14.11;100.00;97568.34;4957871;28;20533;-67
2023/07/19 06:03:01;;;;;;;5.45;3.80;;;;;;;14.08;100.00;97578.63;4958044;28;20042;-67
2023/07/19 06:05:27;;;;;;;6.97;3.63;;;;;;;14.06;100.00;97581.50;4958186;28;20058;-67
2023/07/19 06:07:53;;;;;;;4.68;3.70;;;;;;;13.99;100.00;97552.94;4958037;28;20409;-67
2023/07/19 06:10:18;;;;;;;7.25;4.10;;;;;;;13.92;99.39;97581.44;4957669;28;20064;-67
2023/07/19 06:12:45;;;;;;;4.35;3.90;;;;;;;13.91;99.45;97594.00;4956116;28;20042;-68
2023/07/19 06:15:11;;;;;;;6.57;3.97;;;;;;;13.88;99.72;97594.38;4957450;28;20058;-68
2023/07/19 06:17:37;;;;;;;5.93;4.00;;;;;;;13.88;99.34;97625.69;4955717;28;20042;-69
2023/07/19 06:20:04;;;;;;;6.18;3.92;;;;;;;13.89;99.69;97596.03;4957678;28;20057;-68
2023/07/19 06:22:31;;;;;;;8.60;4.90;;;;;;;13.85;99.89;97612.66;4957314;28;20049;-68
2023/07/19 06:25:00;;;;;;;7.70;4.20;;;;;;;13.81;100.00;97610.31;4957114;28;20066;-68
2023/07/19 06:27:25;;;;;;;5.45;3.90;;;;;;;13.76;99.73;97615.41;4972332;28;20050;-67
2023/07/19 06:29:51;;;;;;;4.25;3.72;;;;;;;13.76;99.43;97611.88;4957152;28;20409;-67
2023/07/19 06:32:16;;;;;;;4.28;3.88;;;;;;;13.73;99.81;97623.78;4957525;28;20046;-67
2023/07/19 06:34:42;;;;;;;4.18;3.78;;;;;;;13.73;99.95;97633.66;4972383;28;20417;-67
2023/07/19 06:37:07;;;;;;;5.60;4.22;;;;;;;13.74;99.91;97620.09;4972450;28;20050;-66
2023/07/19 06:39:32;;;;;;;4.68;4.13;;;;;;;13.78;99.84;97615.19;4956991;28;20050;-67
2023/07/19 06:41:57;;;;;;;6.47;4.03;;;;;;;13.77;99.77;97629.59;4957174;28;20057;-66
2023/07/19 06:44:22;;;;;;;5.25;4.18;;;;;;;13.80;99.91;97639.97;4957021;28;20539;-67
2023/07/19 06:46:48;;;;;;;7.10;4.38;;;;;;;13.88;100.00;97631.06;4957146;28;20062;-67
2023/07/19 06:49:13;;;;;;;4.93;4.43;;;;;;;13.91;100.00;97634.19;4957211;28;20890;-67
2023/07/19 06:51:39;;;;;;;5.68;4.55;;;;;;;14.02;100.00;97635.59;4957338;28;20038;-67
2023/07/19 06:54:04;;;;;;;14.88;4.85;;;;;;;14.08;99.95;97643.78;4955557;28;20057;-70
2023/07/19 06:56:29;;;;;;;7.22;4.40;;;;;;;14.16;100.00;97634.81;4957235;28;20053;-67
2023/07/19 06:58:54;;;;;;;6.28;4.03;;;;;;;14.16;100.00;97630.28;4956524;28;20057;-68
2023/07/19 07:01:20;;;;;;;6.85;4.43;;;;;;;14.23;100.00;97643.78;4956861;28;20050;-67
2023/07/19 07:03:45;;;;;;;5.97;4.43;;;;;;;14.30;100.00;97650.09;4956737;28;20077;-68
2023/07/19 07:06:11;;;;;;;7.55;4.78;;;;;;;14.27;100.00;97660.34;4956067;28;20053;-67
2023/07/19 07:08:37;;;;;;;7.95;5.70;;;;;;;14.26;100.00;97639.91;4956859;28;20073;-67
2023/07/19 07:11:04;;;;;;;7.82;6.53;;;;;;;14.26;100.00;97650.63;4971702;28;20053;-67
2023/07/19 07:13:29;;;;;;;8.07;5.82;;;;;;;14.26;100.00;97666.72;4956802;28;20045;-67
2023/07/19 07:15:54;;;;;;;7.20;5.68;;;;;;;14.26;100.00;97669.41;4956406;28;20042;-68
2023/07/19 07:18:20;;;;;;;7.97;5.20;;;;;;;14.23;99.63;97657.19;4956720;28;20042;-68
2023/07/19 07:20:45;;;;;;;6.80;4.80;;;;;;;14.25;99.33;97665.88;4956588;28;20057;-69
2023/07/19 07:23:11;;;;;;;6.13;5.07;;;;;;;14.27;99.38;97674.59;4955395;28;20050;-69
2023/07/19 07:25:37;;;;;;;8.65;5.38;;;;;;;14.34;99.66;97674.69;4956833;28;20053;-68
2023/07/19 07:28:03;;;;;;;7.65;5.47;;;;;;;14.40;99.75;97676.69;4955090;28;20061;-67
2023/07/19 07:30:28;;;;;;;8.18;5.20;;;;;;;14.42;99.73;97677.34;4971417;28;20043;-68
2023/07/19 07:32:53;;;;;;;8.00;5.50;;;;;;;14.45;99.77;97699.25;4956374;28;20062;-69
2023/07/19 07:35:20;;;;;;;7.35;5.88;;;;;;;14.48;99.54;97671.25;4956200;28;20042;-68
2023/07/19 07:37:45;;;;;;;5.75;4.97;;;;;;;14.52;99.51;97688.63;4938948;28;20057;-67
2023/07/19 07:40:11;;;;;;;8.70;5.57;;;;;;;14.56;99.64;97695.28;4956283;28;20050;-66
2023/07/19 07:42:37;;;;;;;8.85;5.28;;;;;;;14.66;99.59;97695.88;4954544;28;20065;-67
2023/07/19 07:45:02;;;;;;;7.10;4.97;;;;;;;14.76;99.91;97711.72;4956090;28;20049;-68
2023/07/19 07:47:30;;;;;;;11.23;5.63;;;;;;;14.84;99.55;97712.44;4955987;28;20042;-68
2023/07/19 07:49:56;;;;;;;8.43;5.53;;;;;;;14.91;99.08;97704.50;4956144;28;20497;-68
2023/07/19 07:52:21;;;;;;;8.13;5.55;;;;;;;15.00;99.05;97702.56;4954722;28;20046;-67
2023/07/19 07:54:48;;;;;;;8.02;5.30;;;;;;;15.09;99.06;97710.34;4956214;28;20413;-67
2023/07/19 07:57:13;;;;;;;9.18;5.35;;;;;;;15.19;99.11;97713.59;4955683;28;20054;-69
2023/07/19 07:59:38;;;;;;;10.40;5.28;;;;;;;15.29;99.14;97710.59;4954787;28;20046;-68
2023/07/19 08:02:03;;;;;;;7.25;5.47;;;;;;;15.29;97.88;97707.94;4954880;28;20501;-67
2023/07/19 08:04:29;;;;;;;7.00;4.97;;;;;;;15.36;97.63;97730.31;4955804;28;20045;-67
2023/07/19 08:06:54;;;;;;;5.85;4.90;;;;;;;15.55;97.55;97713.66;4954604;28;20050;-69
2023/07/19 08:09:19;;;;;;;6.18;4.72;;;;;;;15.76;97.25;97698.63;4956048;28;20042;-68
2023/07/19 08:11:45;;;;;;;7.82;5.55;;;;;;;15.85;97.28;97663.38;4955830;28;20482;-69
2023/07/19 08:14:10;;;;;;;9.90;5.50;;;;;;;16.03;96.82;97738.16;4955913;28;20050;-68
2023/07/19 08:16:35;;;;;;;5.72;5.10;;;;;;;16.27;96.72;97702.03;4954034;28;20050;-70
2023/07/19 08:19:00;;;;;;;5.97;4.57;;;;;;;16.32;96.47;97711.19;4959336;28;20046;-68
2023/07/19 08:21:25;;;;;;;6.75;4.55;;;;;;;16.57;95.40;97702.72;4959749;28;20043;-70
2023/07/19 08:23:53;;;;;;;5.45;4.78;;;;;;;16.75;94.79;97703.09;4959628;28;20058;-69
2023/07/19 08:26:19;;;;;;;5.05;4.55;;;;;;;16.83;94.09;97708.31;4959829;28;20054;-68
2023/07/19 08:28:45;;;;;;;5.05;4.00;;;;;;;16.73;94.25;97712.38;4959652;28;20038;-68
2023/07/19 08:31:10;;;;;;;5.53;4.35;;;;;;;16.60;93.66;97723.81;4959634;28;20053;-69
2023/07/19 08:33:36;;;;;;;6.85;4.10;;;;;;;16.55;92.53;97675.16;4959529;28;20038;-68
2023/07/19 08:36:01;;;;;;;5.57;4.43;;;;;;;16.53;91.84;97713.03;4959666;28;20046;-68
2023/07/19 08:38:28;;;;;;;6.93;4.25;;;;;;;16.42;90.71;97731.53;4957736;28;20053;-70
2023/07/19 08:41:03;;;;;;;7.65;4.20;;;;;;;16.36;91.77;97749.28;4954975;28;20533;-68
2023/07/19 08:43:36;;;;;;;7.88;4.30;;;;;;;16.23;91.59;97727.66;4940168;28;20405;-68
2023/07/19 08:46:02;;;;;;;5.65;4.57;;;;;;;16.19;91.64;97716.44;4940019;28;20057;-68
2023/07/19 08:48:28;;;;;;;4.28;3.88;;;;;;;16.23;92.33;97733.03;4940030;28;20050;-68
2023/07/19 08:50:57;;;;;;;5.97;4.00;;;;;;;16.28;91.82;97715.28;4922823;28;20043;-68
2023/07/19 08:53:24;;;;;;;6.22;4.72;;;;;;;16.36;92.44;97726.94;4939903;28;20043;-68
2023/07/19 08:55:51;;;;;;;6.90;4.00;;;;;;;16.38;92.43;97722.19;4939852;28;20054;-68
2023/07/19 08:58:17;;;;;;;5.30;4.40;;;;;;;16.45;92.29;97733.84;4938046;28;20046;-69
2023/07/19 09:00:47;;;;;;;4.30;3.30;;;;;;;16.51;91.40;97733.06;4945337;28;20588;-68
2023/07/19 09:03:12;;;;;;;3.95;3.42;;;;;;;16.77;91.14;97730.63;4959185;28;20509;-69
2023/07/19 09:05:38;;;;;;;4.47;3.83;;;;;;;17.54;91.35;97719.72;4958763;28;20405;-68
2023/07/19 09:08:04;;;;;;;4.93;3.90;;;;;;;19.41;91.48;97720.56;4954808;28;20414;-69
2023/07/19 09:10:30;;;;;;;5.72;3.90;;;;;;;20.25;89.71;97717.69;4955348;28;20042;-69
2023/07/19 09:12:55;;;;;;;6.50;3.65;;;;;;;21.03;86.72;97715.44;4958108;28;20054;-69
2023/07/19 09:15:20;;;;;;;5.45;3.33;;;;;;;21.76;83.70;97720.94;4957420;28;20046;-69
2023/07/19 09:17:48;;;;;;;5.05;3.03;;;;;;;21.65;80.13;97716.28;4959073;28;20049;-70
2023/07/19 09:20:15;;;;;;;4.03;3.47;;;;;;;21.31;80.67;97718.53;4959212;28;20046;-71
2023/07/19 09:23:06;;;;;;;4.90;3.28;;;;;;;21.05;81.12;97726.06;4959575;28;20050;-71
2023/07/19 09:25:32;;;;;;;3.90;3.33;;;;;;;20.83;80.33;97677.72;4959278;28;20050;-70
2023/07/19 09:27:57;;;;;;;4.07;3.45;;;;;;;20.60;78.06;97732.47;4958611;28;20053;-70
2023/07/19 09:30:22;;;;;;;5.50;3.17;;;;;;;20.75;77.56;97724.03;4958683;28;20053;-70
2023/07/19 09:32:58;;;;;;;5.22;3.65;;;;;;;21.07;78.74;97721.25;4959192;28;20053;-70
2023/07/19 09:35:27;;;;;;;4.60;3.15;;;;;;;21.51;76.33;97722.91;4959030;28;20038;-71
2023/07/19 09:37:53;;;;;;;3.83;3.45;;;;;;;22.05;76.21;97714.75;4974256;28;20134;-71
2023/07/19 09:40:19;;;;;;;7.10;3.08;;;;;;;22.28;73.35;97703.13;4957567;28;20047;-70
2023/07/19 09:42:45;;;;;;;7.53;3.53;;;;;;;22.17;73.74;97732.97;4974035;28;20066;-71
2023/07/19 09:45:11;;;;;;;3.92;3.38;;;;;;;22.02;71.96;97715.19;4957483;28;20057;-71
2023/07/19 09:47:41;;;;;;;3.35;3.00;;;;;;;22.18;73.38;97723.75;4958353;28;20049;-70
2023/07/19 09:50:08;;;;;;;5.95;3.60;;;;;;;22.51;71.98;97718.66;4957364;28;20065;-72
2023/07/19 09:52:40;;;;;;;5.13;3.00;;;;;;;22.58;72.71;97719.38;4957230;28;20065;-70
2023/07/19 09:55:08;;;;;;;3.67;3.22;;;;;;;22.27;71.35;97711.50;4958921;28;20532;-71
2023/07/19 09:57:40;;;;;;;4.20;3.10;;;;;;;21.74;71.18;97720.34;4956763;28;20058;-69
2023/07/19 10:00:06;;;;;;;4.07;3.17;;;;;;;21.05;70.88;97728.78;4958189;28;20050;-69
2023/07/19 10:02:35;;;;;;;3.08;2.78;;;;;;;20.33;74.23;97730.97;4956995;28;20045;-69
2023/07/19 10:05:08;;;;;;;4.38;2.95;;;;;;;19.80;72.84;97762.88;4957980;28;20047;-71
2023/07/19 10:07:36;;;;;;;4.53;2.90;;;;;;;19.17;73.91;97757.19;4973964;28;20524;-70
2023/07/19 10:10:03;;;;;;;3.60;2.95;;;;;;;18.84;74.53;97758.06;4944499;28;20038;-71
2023/07/19 10:12:36;;;;;;;4.35;3.05;;;;;;;18.77;75.65;97756.38;4961587;28;20054;-71
2023/07/19 10:15:08;;;;;;;8.68;2.95;;;;;;;19.78;77.37;97760.38;4948164;28;20524;-71
2023/07/19 10:17:48;;;;;;;;;;;;;;;20.98;74.92;97745.94;4958823;28;20057;-70
2023/07/19 10:20:14;;;;;;;3.53;2.80;;;;;;;20.90;74.58;97727.22;4956873;28;19933;-70
2023/07/19 10:22:51;;;;;;;6.72;3.50;;;;;;;20.78;74.00;97749.81;4940365;28;20054;-71
2023/07/19 10:25:22;;;;;;;6.22;3.42;;;;;;;20.28;72.87;97755.97;4940898;28;20070;-71
2023/07/19 10:28:20;;;;;;;4.22;3.15;;;;;;;19.89;72.48;97781.34;4941740;28;20047;-71
2023/07/19 10:30:51;;;;;;;4.25;3.35;;;;;;;19.45;76.05;97775.84;4941165;28;20051;-70
2023/07/19 10:33:19;;;;;;;7.03;3.97;;;;;;;19.13;75.40;97778.38;4954472;28;20050;-70
2023/07/19 10:35:46;;;;;;;4.65;3.17;;;;;;;19.10;75.80;97775.25;4964050;28;20038;-72
2023/07/19 10:38:30;;;;;;;5.18;2.97;;;;;;;19.44;75.33;97768.75;4956352;28;20122;-71
2023/07/19 10:41:04;;;;;;;5.47;3.42;;;;;;;19.74;74.91;97780.78;4939641;28;20054;-70
2023/07/19 10:43:31;;;;;;;3.83;3.47;;;;;;;19.81;74.81;97781.59;4931998;28;20445;-71
2023/07/19 10:45:59;;;;;;;3.65;2.88;;;;;;;19.72;74.13;97792.84;4957807;28;20062;-70
2023/07/19 10:48:26;;;;;;;5.35;3.38;;;;;;;19.52;73.23;97790.22;4939074;28;20505;-71
2023/07/19 10:50:55;;;;;;;5.07;3.60;;;;;;;19.28;71.97;97782.75;4937705;28;20414;-71
2023/07/19 10:53:21;;;;;;;5.65;3.38;;;;;;;19.12;74.58;97798.31;4953076;28;20418;-71
2023/07/19 10:55:46;;;;;;;4.10;3.08;;;;;;;19.06;74.84;97799.19;4952529;28;20054;-71
2023/07/19 10:58:12;;;;;;;4.32;3.28;;;;;;;19.13;75.28;97809.97;4938901;28;20062;-70
2023/07/19 11:00:43;;;;;;;5.78;3.30;;;;;;;19.43;75.83;97816.56;4955723;28;20046;-71
2023/07/19 11:03:13;;;;;;;3.50;2.72;;;;;;;19.77;74.04;97806.56;4955908;28;20046;-70
2023/07/19 11:05:41;;;;;;;4.90;3.42;;;;;;;20.04;74.68;97797.31;4972241;28;20417;-70
2023/07/19 11:08:08;;;;;;;3.40;3.00;;;;;;;20.27;71.78;97797.63;4957434;28;20038;-68
2023/07/19 11:10:33;;;;;;;4.93;3.33;;;;;;;20.38;73.18;97798.84;4957020;28;20397;-69
2023/07/19 11:12:58;;;;;;;5.43;3.45;;;;;;;20.45;72.79;97783.38;4955329;28;20520;-69
2023/07/19 11:15:26;;;;;;;7.20;3.05;;;;;;;20.36;72.54;97805.50;4957077;28;20059;-70
2023/07/19 11:17:55;;;;;;;7.75;2.92;;;;;;;20.34;70.45;97796.75;4957156;28;20041;-70
2023/07/19 11:20:34;;;;;;;4.30;2.67;;;;;;;20.32;69.25;97794.25;4944576;28;20046;-66
2023/07/19 11:23:09;;;;;;;3.20;2.90;;;;;;;20.20;69.64;97798.72;4940452;28;20045;-68
2023/07/19 11:25:38;;;;;;;5.43;2.83;;;;;;;19.94;70.78;97791.53;4938844;28;20039;-68